Amber, Iowa
Current Conditions -  °F | °C
As of 4:15 PM on Monday 20 Oct 2014 (Local Time) from KMXO Reporting Station
Clear Clear  
Wind Chill: 66°   Ceiling: Unl
Heat Index: 66°   Visibility: 10mi
Dew Point: 43°   Wind: 17mph
Humidity: 43%   Direction: 310°NW
Pressure: 29.93"   Gusts: 25mph
Location:  42.1396°N, 91.2844°W
Report Text: KMXO 202115Z AUTO 31015G22KT 10SM CLR 19/06 A2993 RMK AO2
Loading
Personal Weather Stations






























Interactive Weather Map
Tropical Storm Tracking
New forecast layout! Learn more

10-Day Weather Forecast

Advertisements
Track Severe Weather on mobile